createdAt,value
2024-01-06T00:01:04.028Z,99615.19
2024-01-06T00:03:33.791Z,99616.56
2024-01-06T00:06:03.824Z,99612.94
2024-01-06T00:08:35.990Z,99616.41
2024-01-06T00:11:06.082Z,99615.94
2024-01-06T00:13:35.658Z,99619.81
2024-01-06T00:16:05.285Z,99624.34
2024-01-06T00:18:34.983Z,99626.28
2024-01-06T00:21:04.618Z,99626.56
2024-01-06T00:23:36.781Z,99629.34
2024-01-06T00:26:12.554Z,99633.56
2024-01-06T00:28:42.942Z,99631.53
2024-01-06T00:31:13.287Z,99624.78
2024-01-06T00:33:42.826Z,99631.66
2024-01-06T00:36:12.817Z,99637.66
2024-01-06T00:38:45.006Z,99634.34
2024-01-06T00:41:14.840Z,99639.34
2024-01-06T00:43:44.437Z,99631.94
2024-01-06T00:46:14.041Z,99632.94
2024-01-06T00:48:43.711Z,99633.25
2024-01-06T00:51:13.411Z,99626.94
2024-01-06T00:53:45.531Z,99632.09
2024-01-06T00:56:15.068Z,99639.72
2024-01-06T00:58:44.620Z,99636.34
2024-01-06T01:01:14.264Z,99643.56
2024-01-06T01:03:44.025Z,99648.13
2024-01-06T01:06:13.677Z,99652.75
2024-01-06T01:08:45.843Z,99657.09
2024-01-06T01:11:15.580Z,99659.31
2024-01-06T01:13:45.222Z,99656.97
2024-01-06T01:16:15.192Z,99666.81
2024-01-06T01:18:44.876Z,99664.66
2024-01-06T01:21:14.776Z,99662.72
2024-01-06T01:23:47.301Z,99671.81
2024-01-06T01:26:16.902Z,99677.88
2024-01-06T01:28:46.623Z,99682.09
2024-01-06T01:31:16.970Z,99691.63
2024-01-06T01:33:46.739Z,99688.94
2024-01-06T01:36:16.867Z,99688.13
2024-01-06T01:38:49.053Z,99688.13
2024-01-06T01:41:18.742Z,99685.22
2024-01-06T01:43:49.694Z,99688.94
2024-01-06T01:46:19.740Z,99690.16
2024-01-06T01:48:49.560Z,99692.84
2024-01-06T01:51:19.386Z,99690.97
2024-01-06T01:53:52.339Z,99688.78
2024-01-06T01:56:23.217Z,99697.53
2024-01-06T01:58:52.895Z,99693.53
2024-01-06T02:01:22.990Z,99704.09
2024-01-06T02:03:52.823Z,99694.19
2024-01-06T02:06:22.562Z,99695.84
2024-01-06T02:08:54.894Z,99693.16
2024-01-06T02:11:24.579Z,99705.41
2024-01-06T02:13:54.273Z,99705.09
2024-01-06T02:16:23.846Z,99707.78
2024-01-06T02:18:53.751Z,99706.13
2024-01-06T02:21:25.158Z,99702.38
2024-01-06T02:23:57.309Z,99715.38
2024-01-06T02:26:26.958Z,99713.25
2024-01-06T02:28:56.502Z,99714.09
2024-01-06T02:31:26.153Z,99719.84
2024-01-06T02:33:55.975Z,99724.56
2024-01-06T02:36:25.741Z,99726.56
2024-01-06T02:38:57.980Z,99721.88
2024-01-06T02:41:27.585Z,99732.28
2024-01-06T02:43:58.468Z,99736.09
2024-01-06T02:46:28.244Z,99737.13
2024-01-06T02:48:58.093Z,99738.56
2024-01-06T02:51:27.839Z,99742.50
2024-01-06T02:54:00.062Z,99742.38
2024-01-06T02:56:30.356Z,99740.47
2024-01-06T02:58:59.905Z,99742.28
2024-01-06T03:01:29.509Z,99745.63
2024-01-06T03:03:59.199Z,99732.19
2024-01-06T03:06:28.830Z,99741.75
2024-01-06T03:09:01.166Z,99745.66
2024-01-06T03:11:30.716Z,99744.13
2024-01-06T03:14:00.342Z,99752.13
2024-01-06T03:16:29.901Z,99757.00
2024-01-06T03:18:59.566Z,99755.00
2024-01-06T03:21:29.398Z,99758.69
2024-01-06T03:24:01.596Z,99751.94
2024-01-06T03:26:31.208Z,99765.06
2024-01-06T03:29:00.755Z,99758.88
2024-01-06T03:31:33.048Z,99764.41
2024-01-06T03:34:02.813Z,99765.41
2024-01-06T03:36:32.448Z,99752.47
2024-01-06T03:39:04.576Z,99754.31
2024-01-06T03:41:34.394Z,99767.09
2024-01-06T03:44:05.459Z,99774.81
2024-01-06T03:46:35.031Z,99778.66
2024-01-06T03:49:05.086Z,99768.97
2024-01-06T03:51:34.896Z,99782.38
2024-01-06T03:54:07.242Z,99783.19
2024-01-06T03:56:36.811Z,99778.91
2024-01-06T03:59:06.383Z,99784.63
2024-01-06T04:01:37.341Z,99794.53
2024-01-06T04:04:07.399Z,99785.81
2024-01-06T04:06:37.179Z,99788.03
2024-01-06T04:09:10.730Z,99789.31
2024-01-06T04:11:40.342Z,99795.38
2024-01-06T04:14:09.945Z,99799.91
2024-01-06T04:16:39.631Z,99800.28
2024-01-06T04:19:10.323Z,99803.66
2024-01-06T04:21:40.028Z,99818.41
2024-01-06T04:24:12.365Z,99810.53
2024-01-06T04:26:42.063Z,99818.25
2024-01-06T04:29:11.552Z,99819.09
2024-01-06T04:31:41.193Z,99827.97
2024-01-06T04:34:10.952Z,99830.97
2024-01-06T04:36:41.203Z,99827.28
2024-01-06T04:39:14.564Z,99834.34
2024-01-06T04:41:44.425Z,99832.59
2024-01-06T04:44:14.026Z,99841.31
2024-01-06T04:46:43.595Z,99843.53
2024-01-06T04:49:13.953Z,99845.31
2024-01-06T04:51:43.644Z,99846.78
2024-01-06T04:54:15.778Z,99848.69
2024-01-06T04:56:45.377Z,99848.34
2024-01-06T04:59:14.970Z,99854.41
2024-01-06T05:01:44.637Z,99855.47
2024-01-06T05:04:14.264Z,99851.88
2024-01-06T05:06:43.881Z,99849.31
2024-01-06T05:09:16.121Z,99855.00
2024-01-06T05:11:47.488Z,99853.00
2024-01-06T05:14:17.021Z,99854.38
2024-01-06T05:16:46.609Z,99852.34
2024-01-06T05:19:20.857Z,99872.03
2024-01-06T05:21:51.028Z,99873.38
2024-01-06T05:24:24.491Z,99876.09
2024-01-06T05:26:54.038Z,99877.66
2024-01-06T05:29:23.841Z,99879.81
2024-01-06T05:31:53.448Z,99886.53
2024-01-06T05:34:23.162Z,99899.28
2024-01-06T05:36:52.926Z,99898.25
2024-01-06T05:39:25.293Z,99897.25
2024-01-06T05:41:54.826Z,99896.41
2024-01-06T05:44:24.525Z,99895.06
2024-01-06T05:46:54.705Z,99891.06
2024-01-06T05:49:25.198Z,99898.06
2024-01-06T05:51:54.764Z,99898.75
2024-01-06T05:54:26.984Z,99907.13
2024-01-06T05:56:56.681Z,99901.94
2024-01-06T05:59:26.288Z,99911.69
2024-01-06T06:01:56.741Z,99912.50
2024-01-06T06:04:27.046Z,99909.16
2024-01-06T06:06:59.183Z,99921.91
2024-01-06T06:09:32.602Z,99928.59
2024-01-06T06:12:03.546Z,99932.13
2024-01-06T06:14:33.055Z,99928.59
2024-01-06T06:17:02.697Z,99940.16
2024-01-06T06:19:32.527Z,99945.50
2024-01-06T06:22:02.506Z,99944.84
2024-01-06T06:24:34.764Z,99948.31
2024-01-06T06:27:04.389Z,99954.91
2024-01-06T06:29:34.112Z,99961.59
2024-01-06T06:32:03.617Z,99966.47
2024-01-06T06:34:33.231Z,99980.19
2024-01-06T06:37:02.857Z,99980.91
2024-01-06T06:39:36.462Z,99973.84
2024-01-06T06:42:06.520Z,99982.88
2024-01-06T06:44:36.154Z,99988.91
2024-01-06T06:47:05.955Z,99996.81
2024-01-06T06:49:35.548Z,99996.31
2024-01-06T06:52:05.712Z,99999.97
2024-01-06T06:54:38.021Z,100001.66
2024-01-06T06:57:08.076Z,100003.16
2024-01-06T06:59:37.678Z,100007.03
2024-01-06T07:02:07.597Z,100019.41
2024-01-06T07:04:37.233Z,100014.06
2024-01-06T07:07:07.465Z,100021.75
2024-01-06T07:09:39.648Z,100024.94
2024-01-06T07:12:13.405Z,100020.78
2024-01-06T07:14:43.053Z,100014.56
2024-01-06T07:17:12.841Z,100015.91
2024-01-06T07:19:42.467Z,100021.25
2024-01-06T07:22:12.088Z,100028.13
2024-01-06T07:24:44.303Z,100034.81
2024-01-06T07:27:14.079Z,100042.38
2024-01-06T07:29:43.649Z,100047.38
2024-01-06T07:32:13.208Z,100042.03
2024-01-06T07:34:42.804Z,100050.09
2024-01-06T07:37:12.367Z,100049.56
2024-01-06T07:39:44.598Z,100055.28
2024-01-06T07:42:14.257Z,100060.97
2024-01-06T07:44:43.870Z,100070.38
2024-01-06T07:47:13.503Z,100067.84
2024-01-06T07:49:43.209Z,100076.06
2024-01-06T07:52:12.743Z,100079.41
2024-01-06T07:54:44.893Z,100087.63
2024-01-06T07:57:14.688Z,100086.94
2024-01-06T07:59:44.275Z,100081.94
2024-01-06T08:02:13.846Z,100089.13
2024-01-06T08:04:43.507Z,100101.53
2024-01-06T08:07:14.928Z,100099.84
2024-01-06T08:09:47.252Z,100110.75
2024-01-06T08:12:16.828Z,100111.75
2024-01-06T08:14:46.451Z,100110.56
2024-01-06T08:17:19.492Z,100129.50
2024-01-06T08:19:49.911Z,100124.81
2024-01-06T08:22:19.535Z,100133.84
2024-01-06T08:24:51.683Z,100124.31
2024-01-06T08:27:22.600Z,100138.88
2024-01-06T08:29:52.421Z,100142.59
2024-01-06T08:32:21.984Z,100148.75
2024-01-06T08:34:51.569Z,100149.94
2024-01-06T08:37:21.356Z,100157.13
2024-01-06T08:39:53.703Z,100154.47
2024-01-06T08:42:23.458Z,100171.00
2024-01-06T08:44:52.999Z,100172.03
2024-01-06T08:47:22.975Z,100169.50
2024-01-06T08:49:52.696Z,100180.94
2024-01-06T08:52:22.371Z,100182.63
2024-01-06T08:54:55.256Z,100178.06
2024-01-06T08:57:24.996Z,100191.13
2024-01-06T08:59:54.566Z,100201.38
2024-01-06T09:02:24.149Z,100196.03
2024-01-06T09:04:53.972Z,100195.47
2024-01-06T09:07:23.708Z,100205.41
2024-01-06T09:09:55.984Z,100206.44
2024-01-06T09:12:26.084Z,100217.69
2024-01-06T09:14:55.743Z,100223.75
2024-01-06T09:17:25.392Z,100229.25
2024-01-06T09:19:55.401Z,100223.47
2024-01-06T09:22:25.219Z,100233.06
2024-01-06T09:24:57.427Z,100238.22
2024-01-06T09:27:27.027Z,100242.41
2024-01-06T09:29:56.583Z,100253.63
2024-01-06T09:32:26.778Z,100253.75
2024-01-06T09:34:56.407Z,100250.50
2024-01-06T09:37:26.030Z,100252.97
2024-01-06T09:39:58.284Z,100265.31
2024-01-06T09:42:27.954Z,100263.50
2024-01-06T09:44:57.722Z,100269.88
2024-01-06T09:47:30.259Z,100269.06
2024-01-06T09:50:05.760Z,100264.97
2024-01-06T09:52:37.188Z,100266.81
2024-01-06T09:55:14.175Z,100273.69
2024-01-06T09:57:43.823Z,100270.19
2024-01-06T10:00:14.896Z,100277.63
2024-01-06T10:02:44.511Z,100281.75
2024-01-06T10:05:15.972Z,100276.84
2024-01-06T10:07:45.687Z,100274.34
2024-01-06T10:10:18.519Z,100279.72
2024-01-06T10:12:48.018Z,100286.09
2024-01-06T10:15:17.662Z,100291.47
2024-01-06T10:17:47.751Z,100282.72
2024-01-06T10:20:19.087Z,100294.97
2024-01-06T10:22:49.381Z,100297.59
2024-01-06T10:25:21.570Z,100297.69
2024-01-06T10:27:51.223Z,100300.72
2024-01-06T10:30:21.192Z,100295.81
2024-01-06T10:32:51.000Z,100304.03
2024-01-06T10:35:21.455Z,100303.00
2024-01-06T10:37:51.796Z,100309.53
2024-01-06T10:40:24.092Z,100301.97
2024-01-06T10:42:54.104Z,100303.28
2024-01-06T10:45:23.665Z,100300.28
2024-01-06T10:47:53.786Z,100314.03
2024-01-06T10:50:24.502Z,100322.28
2024-01-06T10:52:55.943Z,100318.44
2024-01-06T10:55:30.618Z,100332.75
2024-01-06T10:58:06.923Z,100327.38
2024-01-06T11:00:36.585Z,100327.84
2024-01-06T11:03:08.210Z,100331.16
2024-01-06T11:05:40.548Z,100333.50
2024-01-06T11:08:11.757Z,100330.25
2024-01-06T11:10:44.547Z,100333.63
2024-01-06T11:13:15.685Z,100343.50
2024-01-06T11:15:46.699Z,100337.66
2024-01-06T11:18:35.407Z,100342.38
2024-01-06T11:21:24.752Z,100347.56
2024-01-06T11:24:26.063Z,100343.25
2024-01-06T11:27:00.976Z,100337.38
2024-01-06T11:29:30.710Z,100331.59
2024-01-06T11:32:31.616Z,100345.50
2024-01-06T11:35:10.478Z,100336.53
2024-01-06T11:37:56.430Z,100330.66
2024-01-06T11:40:28.787Z,100335.94
2024-01-06T11:43:06.732Z,100332.88
2024-01-06T11:45:37.140Z,100340.91
2024-01-06T11:48:09.021Z,100332.66
2024-01-06T11:50:40.819Z,100336.84
2024-01-06T11:53:12.726Z,100338.22
2024-01-06T11:55:44.047Z,100338.19
2024-01-06T11:58:16.466Z,100335.34
2024-01-06T12:00:49.119Z,100336.50
2024-01-06T12:03:19.920Z,100332.28
2024-01-06T12:05:49.546Z,100336.19
2024-01-06T12:08:23.261Z,100340.88
2024-01-06T12:10:52.911Z,100343.78
2024-01-06T12:13:25.377Z,100343.09
2024-01-06T12:15:55.127Z,100353.06
2024-01-06T12:18:25.679Z,100351.66
2024-01-06T12:20:56.515Z,100349.88
2024-01-06T12:23:29.762Z,100360.28
2024-01-06T12:25:59.482Z,100353.88
2024-01-06T12:28:31.584Z,100355.47
2024-01-06T12:31:01.183Z,100360.81
2024-01-06T12:33:32.635Z,100366.31
2024-01-06T12:36:10.656Z,100371.38
2024-01-06T12:38:47.392Z,100371.75
2024-01-06T12:41:18.982Z,100359.50
2024-01-06T12:43:51.073Z,100380.56
2024-01-06T12:46:20.759Z,100377.97
2024-01-06T12:48:50.451Z,100374.56
2024-01-06T12:51:20.218Z,100377.56
2024-01-06T12:53:49.844Z,100378.84
2024-01-06T12:56:19.454Z,100380.78
2024-01-06T12:58:52.207Z,100380.78
2024-01-06T13:01:21.680Z,100386.13
2024-01-06T13:03:51.415Z,100382.38
2024-01-06T13:06:21.224Z,100381.72
2024-01-06T13:08:51.307Z,100394.00
2024-01-06T13:11:21.029Z,100395.53
2024-01-06T13:13:53.296Z,100394.38
2024-01-06T13:16:23.001Z,100398.22
2024-01-06T13:18:55.422Z,100399.38
2024-01-06T13:21:31.909Z,100399.38
2024-01-06T13:24:04.596Z,100399.16
2024-01-06T13:26:34.763Z,100406.19
2024-01-06T13:31:47.676Z,100416.41
2024-01-06T13:34:17.550Z,100407.63
2024-01-06T13:36:48.126Z,100417.94
2024-01-06T13:39:22.138Z,100429.97
2024-01-06T13:41:52.431Z,100425.38
2024-01-06T13:44:24.590Z,100437.91
2024-01-06T13:46:56.018Z,100440.59
2024-01-06T13:49:25.828Z,100445.75
2024-01-06T13:51:55.623Z,100445.13
2024-01-06T13:54:25.465Z,100454.59
2024-01-06T13:56:55.817Z,100455.00
2024-01-06T13:59:28.005Z,100460.09
2024-01-06T14:01:58.139Z,100462.13
2024-01-06T14:04:27.973Z,100457.50
2024-01-06T14:07:00.202Z,100460.47
2024-01-06T14:09:32.831Z,100479.81
2024-01-06T14:12:04.628Z,100481.06
2024-01-06T14:14:37.718Z,100487.78
2024-01-06T14:17:11.112Z,100489.44
2024-01-06T14:19:41.288Z,100478.34
2024-01-06T14:24:57.521Z,100502.88
2024-01-06T14:27:27.414Z,100493.72
2024-01-06T14:29:59.700Z,100495.56
2024-01-06T14:32:30.546Z,100499.09
2024-01-06T14:35:00.265Z,100501.22
2024-01-06T14:37:29.869Z,100505.97
2024-01-06T14:39:59.543Z,100503.41
2024-01-06T14:42:29.207Z,100514.59
2024-01-06T14:47:37.444Z,100524.88
2024-01-06T14:50:08.184Z,100529.72
2024-01-06T14:52:37.817Z,100527.97
2024-01-06T14:55:08.300Z,100522.09
2024-01-06T14:57:37.925Z,100529.44
2024-01-06T15:00:12.069Z,100536.03
2024-01-06T15:02:41.856Z,100531.91
2024-01-06T15:05:15.963Z,100538.72
2024-01-06T15:07:46.659Z,100539.25
2024-01-06T15:10:17.066Z,100540.16
2024-01-06T15:12:46.773Z,100548.91
2024-01-06T15:15:19.091Z,100547.63
2024-01-06T15:17:49.003Z,100551.84
2024-01-06T15:20:18.862Z,100553.09
2024-01-06T15:22:48.679Z,100561.81
2024-01-06T15:25:19.465Z,100561.84
2024-01-06T15:27:49.250Z,100569.00
2024-01-06T15:30:21.854Z,100583.16
2024-01-06T15:32:51.868Z,100585.19
2024-01-06T15:35:23.930Z,100587.47
2024-01-06T15:37:53.881Z,100586.19
2024-01-06T15:40:23.938Z,100603.94
2024-01-06T15:42:53.830Z,100615.22
2024-01-06T15:45:26.118Z,100617.94
2024-01-06T15:47:55.913Z,100615.69
2024-01-06T15:50:26.730Z,100620.47
2024-01-06T15:52:56.279Z,100627.22
2024-01-06T15:55:25.944Z,100630.59
2024-01-06T15:57:55.632Z,100642.84
2024-01-06T16:00:28.298Z,100638.50
2024-01-06T16:02:57.784Z,100637.78
2024-01-06T16:05:27.943Z,100642.84
2024-01-06T16:07:57.627Z,100640.75
2024-01-06T16:10:27.212Z,100641.88
2024-01-06T16:13:00.126Z,100641.31
2024-01-06T16:15:32.940Z,100645.81
2024-01-06T16:18:02.761Z,100652.84
2024-01-06T16:20:32.813Z,100651.72
2024-01-06T16:23:02.365Z,100657.34
2024-01-06T16:25:31.889Z,100652.28
2024-01-06T16:28:01.523Z,100657.06
2024-01-06T16:30:33.889Z,100660.28
2024-01-06T16:33:05.793Z,100664.66
2024-01-06T16:35:35.343Z,100663.97
2024-01-06T16:38:07.337Z,100677.63
2024-01-06T16:40:36.836Z,100681.97
2024-01-06T16:43:06.714Z,100678.75
2024-01-06T16:45:38.954Z,100682.38
2024-01-06T16:48:09.568Z,100684.63
2024-01-06T16:50:41.088Z,100690.53
2024-01-06T16:53:11.766Z,100682.09
2024-01-06T16:55:41.443Z,100683.38
2024-01-06T16:58:11.115Z,100684.78
2024-01-06T17:00:43.589Z,100692.22
2024-01-06T17:03:13.292Z,100695.31
2024-01-06T17:05:42.862Z,100704.31
2024-01-06T17:08:12.515Z,100711.19
2024-01-06T17:10:42.459Z,100696.69
2024-01-06T17:13:12.066Z,100711.47
2024-01-06T17:15:44.249Z,100724.53
2024-01-06T17:18:13.883Z,100725.69
2024-01-06T17:20:43.479Z,100717.53
2024-01-06T17:25:54.699Z,100726.38
2024-01-06T17:28:24.398Z,100732.38
2024-01-06T17:30:56.589Z,100741.78
2024-01-06T17:33:26.247Z,100740.97
2024-01-06T17:35:55.961Z,100750.13
2024-01-06T17:38:25.571Z,100750.13
2024-01-06T17:40:55.156Z,100755.47
2024-01-06T17:43:24.672Z,100763.06
2024-01-06T17:45:56.851Z,100753.50
2024-01-06T17:48:26.649Z,100762.81
2024-01-06T17:50:56.306Z,100767.84
2024-01-06T17:53:25.838Z,100773.34
2024-01-06T17:55:55.467Z,100775.59
2024-01-06T17:58:25.735Z,100780.50
2024-01-06T18:00:57.963Z,100788.78
2024-01-06T18:03:27.937Z,100789.94
2024-01-06T18:05:57.756Z,100797.97
2024-01-06T18:08:27.310Z,100791.56
2024-01-06T18:10:56.798Z,100801.16
2024-01-06T18:13:26.396Z,100795.69
2024-01-06T18:15:58.554Z,100796.66
2024-01-06T18:18:28.245Z,100799.84
2024-01-06T18:20:57.833Z,100800.44
2024-01-06T18:23:27.405Z,100805.13
2024-01-06T18:25:56.954Z,100805.13
2024-01-06T18:28:26.503Z,100805.81
2024-01-06T18:30:58.660Z,100802.16
2024-01-06T18:33:28.555Z,100803.53
2024-01-06T18:35:58.210Z,100808.19
2024-01-06T18:38:27.749Z,100806.19
2024-01-06T18:40:59.747Z,100805.09
2024-01-06T18:43:29.297Z,100812.19
2024-01-06T18:46:01.910Z,100814.88
2024-01-06T18:48:31.609Z,100822.75
2024-01-06T18:51:01.286Z,100821.81
2024-01-06T18:53:40.395Z,100823.78
2024-01-06T18:56:10.948Z,100827.09
2024-01-06T18:58:40.555Z,100832.88
2024-01-06T19:01:12.786Z,100838.47
2024-01-06T19:03:44.842Z,100830.31
2024-01-06T19:06:15.392Z,100838.31
2024-01-06T19:08:45.117Z,100834.94
2024-01-06T19:11:14.770Z,100836.81
2024-01-06T19:13:45.080Z,100844.56
2024-01-06T19:16:17.217Z,100845.47
2024-01-06T19:18:47.087Z,100852.19
2024-01-06T19:21:19.703Z,100845.41
2024-01-06T19:23:49.500Z,100855.00
2024-01-06T19:26:19.482Z,100855.69
2024-01-06T19:28:49.024Z,100860.59
2024-01-06T19:31:21.394Z,100870.44
2024-01-06T19:33:53.516Z,100865.09
2024-01-06T19:36:24.030Z,100879.94
2024-01-06T19:38:53.720Z,100879.13
2024-01-06T19:41:23.261Z,100873.56
2024-01-06T19:43:52.842Z,100880.25
2024-01-06T19:46:24.966Z,100879.34
2024-01-06T19:48:55.292Z,100889.28
2024-01-06T19:51:26.447Z,100890.06
2024-01-06T19:53:56.070Z,100894.06
2024-01-06T19:56:25.619Z,100901.38
2024-01-06T19:58:55.230Z,100898.97
2024-01-06T20:01:27.492Z,100899.94
2024-01-06T20:03:57.309Z,100908.22
2024-01-06T20:06:26.964Z,100910.56
2024-01-06T20:08:56.514Z,100907.50
2024-01-06T20:11:26.106Z,100909.06
2024-01-06T20:13:56.407Z,100909.47
2024-01-06T20:16:29.020Z,100910.94
2024-01-06T20:18:58.672Z,100914.47
2024-01-06T20:21:28.309Z,100916.09
2024-01-06T20:23:57.949Z,100921.56
2024-01-06T20:26:30.009Z,100917.84
2024-01-06T20:29:00.237Z,100927.75
2024-01-06T20:31:39.082Z,100932.50
2024-01-06T20:34:08.955Z,100936.28
2024-01-06T20:36:38.579Z,100924.16
2024-01-06T20:39:08.822Z,100934.59
2024-01-06T20:41:38.392Z,100933.50
2024-01-06T20:44:10.234Z,100932.16
2024-01-06T20:46:44.219Z,100935.25
2024-01-06T20:49:13.910Z,100940.44
2024-01-06T20:51:43.495Z,100936.19
2024-01-06T20:54:13.630Z,100932.56
2024-01-06T20:56:45.676Z,100934.38
2024-01-06T20:59:15.317Z,100931.19
2024-01-06T21:01:48.812Z,100942.28
2024-01-06T21:04:18.750Z,100937.72
2024-01-06T21:06:48.562Z,100940.25
2024-01-06T21:09:20.490Z,100938.28
2024-01-06T21:11:50.039Z,100944.81
2024-01-06T21:14:19.582Z,100944.72
2024-01-06T21:16:52.228Z,100948.00
2024-01-06T21:19:22.174Z,100956.97
2024-01-06T21:21:51.941Z,100957.78
2024-01-06T21:24:26.104Z,100961.22
2024-01-06T21:26:55.783Z,100966.25
2024-01-06T21:29:25.884Z,100964.78
2024-01-06T21:31:58.048Z,100960.13
2024-01-06T21:34:28.912Z,100968.03
2024-01-06T21:36:58.524Z,100972.41
2024-01-06T21:39:28.219Z,100984.66
2024-01-06T21:41:57.832Z,100988.94
2024-01-06T21:44:27.360Z,100990.09
2024-01-06T21:47:01.973Z,100983.66
2024-01-06T21:49:33.685Z,100983.00
2024-01-06T21:52:07.597Z,100985.16
2024-01-06T21:54:37.226Z,100979.84
2024-01-06T21:57:07.093Z,100984.66
2024-01-06T21:59:37.467Z,100984.16
2024-01-06T22:02:09.615Z,100991.81
2024-01-06T22:04:39.151Z,100978.81
2024-01-06T22:07:08.916Z,100999.56
2024-01-06T22:09:38.954Z,100996.19
2024-01-06T22:12:09.279Z,100994.97
2024-01-06T22:14:39.353Z,101003.00
2024-01-06T22:17:11.630Z,101006.00
2024-01-06T22:19:42.299Z,101015.88
2024-01-06T22:22:11.865Z,101009.19
2024-01-06T22:24:42.805Z,101014.16
2024-01-06T22:27:12.442Z,101013.56
2024-01-06T22:29:45.726Z,101016.19
2024-01-06T22:32:17.903Z,101027.22
2024-01-06T22:34:47.884Z,101038.03
2024-01-06T22:37:17.538Z,101034.31
2024-01-06T22:39:47.374Z,101044.88
2024-01-06T22:42:16.988Z,101025.84
2024-01-06T22:44:46.551Z,101043.06
2024-01-06T22:47:18.797Z,101050.31
2024-01-06T22:49:48.298Z,101053.97
2024-01-06T22:52:17.804Z,101051.94
2024-01-06T22:54:47.415Z,101055.56
2024-01-06T22:57:16.982Z,101055.91
2024-01-06T22:59:46.566Z,101052.78
2024-01-06T23:02:18.760Z,101054.94
2024-01-06T23:04:48.449Z,101059.78
2024-01-06T23:07:18.184Z,101065.72
2024-01-06T23:09:47.801Z,101066.44
2024-01-06T23:12:17.469Z,101078.47
2024-01-06T23:14:46.999Z,101069.13
2024-01-06T23:17:19.141Z,101073.25
2024-01-06T23:19:48.908Z,101076.41
2024-01-06T23:22:18.552Z,101087.56
2024-01-06T23:24:48.166Z,101082.38
2024-01-06T23:27:17.807Z,101085.00
2024-01-06T23:29:47.363Z,101084.16
2024-01-06T23:32:19.542Z,101089.38
2024-01-06T23:34:49.640Z,101099.66
2024-01-06T23:37:19.287Z,101110.72
2024-01-06T23:39:48.860Z,101101.03
2024-01-06T23:42:18.500Z,101103.94
2024-01-06T23:44:48.101Z,101112.66
2024-01-06T23:47:20.323Z,101112.69
2024-01-06T23:49:49.951Z,101115.69
2024-01-06T23:52:20.930Z,101114.75
2024-01-06T23:54:50.457Z,101121.41
2024-01-06T23:57:20.071Z,101122.75
2024-01-06T23:59:49.590Z,101121.28
